Time;durP1;ratioP1;P1;durP2;ratioP2;P2;SDS_P1;SDS_P2;PMS_P1;PMS_P2;Temp;Humidity;BMP_temperature;BMP_pressure;BME280_temperature;BME280_humidity;BME280_pressure;Samples;Min_cycle;Max_cycle;Signal;HPM_P1;HPM_P2
2023/06/29 00:02:16;;;;;;;8.30;3.83;;;20.90;1.00;;;;;;5055385;28;20499;-79
2023/06/29 00:04:43;;;;;;;4.43;3.23;;;20.90;99.90;;;;;;5048161;28;20461;-80
2023/06/29 00:07:11;;;;;;;5.60;3.53;;;20.80;99.90;;;;;;5047918;28;20448;-80
2023/06/29 00:09:38;;;;;;;5.10;3.77;;;20.90;99.90;;;;;;5041093;28;20475;-80
2023/06/29 00:12:06;;;;;;;7.77;4.90;;;20.80;1.00;;;;;;5040361;28;20465;-80
2023/06/29 00:14:33;;;;;;;5.47;3.77;;;20.80;1.00;;;;;;5050003;28;20488;-81
2023/06/29 00:17:00;;;;;;;5.50;3.50;;;20.80;99.90;;;;;;5050290;28;20452;-79
2023/06/29 00:19:27;;;;;;;6.23;3.53;;;20.80;1.00;;;;;;5059569;28;20546;-78
2023/06/29 00:21:57;;;;;;;7.27;3.67;;;20.80;99.90;;;;;;5044847;28;20574;-79
2023/06/29 00:24:26;;;;;;;4.60;3.80;;;20.80;1.00;;;;;;5058470;28;20456;-80
2023/06/29 00:26:52;;;;;;;7.23;4.27;;;20.80;1.00;;;;;;5055087;28;20525;-78
2023/06/29 00:29:19;;;;;;;5.33;4.10;;;20.80;97.60;;;;;;5049851;28;20452;-80
2023/06/29 00:31:46;;;;;;;5.73;3.57;;;20.80;99.90;;;;;;5058646;28;20476;-80
2023/06/29 00:34:13;;;;;;;5.17;3.90;;;20.80;1.00;;;;;;5047846;28;20479;-79
2023/06/29 00:36:40;;;;;;;5.77;3.23;;;20.80;1.00;;;;;;5038414;28;20527;-79
2023/06/29 00:39:08;;;;;;;8.90;4.30;;;20.80;99.90;;;;;;5050326;28;20457;-79
2023/06/29 00:41:37;;;;;;;5.37;3.50;;;20.80;99.90;;;;;;5039970;28;20484;-80
2023/06/29 00:44:04;;;;;;;6.33;3.10;;;20.80;99.90;;;;;;5039373;28;20462;-77
2023/06/29 00:46:31;;;;;;;8.00;4.77;;;20.80;1.00;;;;;;5052850;28;20452;-80
2023/06/29 00:48:58;;;;;;;4.03;3.43;;;20.80;96.50;;;;;;5044212;28;20456;-80
2023/06/29 00:51:25;;;;;;;6.20;3.63;;;20.70;99.90;;;;;;5052777;28;20527;-79
2023/06/29 00:53:52;;;;;;;5.73;3.87;;;20.70;1.00;;;;;;5054539;28;20448;-80
2023/06/29 00:56:19;;;;;;;9.07;5.20;;;20.70;1.00;;;;;;5038620;28;20453;-80
2023/06/29 00:58:48;;;;;;;8.30;4.20;;;20.70;99.90;;;;;;5046250;28;20456;-80
2023/06/29 01:01:15;;;;;;;6.13;3.97;;;20.70;62.10;;;;;;5051351;28;20472;-78
2023/06/29 01:03:42;;;;;;;6.20;3.93;;;20.70;1.00;;;;;;5045393;28;20463;-80
2023/06/29 01:06:13;;;;;;;6.07;3.50;;;20.70;99.90;;;;;;5040556;28;20973;-80
2023/06/29 01:08:46;;;;;;;5.63;3.10;;;20.70;99.90;;;;;;5056805;28;20474;-79
2023/06/29 01:11:15;;;;;;;4.63;3.53;;;20.70;1.00;;;;;;5044955;28;20472;-80
2023/06/29 01:13:43;;;;;;;5.10;4.10;;;20.70;99.90;;;;;;5037457;28;20448;-80
2023/06/29 01:16:14;;;;;;;8.17;4.20;;;20.70;99.90;;;;;;5036486;28;20445;-79
2023/06/29 01:18:43;;;;;;;5.87;3.93;;;20.70;99.90;;;;;;5043486;28;20971;-80
2023/06/29 01:21:12;;;;;;;10.43;3.50;;;20.70;99.90;;;;;;5056598;28;20468;-80
2023/06/29 01:23:40;;;;;;;7.23;4.10;;;20.70;1.00;;;;;;5056712;28;20452;-79
2023/06/29 01:26:10;;;;;;;6.10;3.97;;;20.70;1.00;;;;;;5056201;28;20448;-79
2023/06/29 01:28:38;;;;;;;4.63;4.20;;;20.70;1.00;;;;;;5055804;28;20460;-80
2023/06/29 01:31:05;;;;;;;9.17;4.50;;;20.70;99.90;;;;;;5056698;28;20490;-78
2023/06/29 01:33:33;;;;;;;6.47;4.33;;;20.70;99.90;;;;;;5056451;28;20479;-80
2023/06/29 01:36:04;;;;;;;5.37;3.90;;;20.60;37.40;;;;;;5056407;28;20463;-79
2023/06/29 01:38:37;;;;;;;9.63;4.73;;;20.60;99.90;;;;;;5048659;28;20456;-79
2023/06/29 01:41:07;;;;;;;6.53;3.87;;;20.60;1.00;;;;;;5053418;28;20464;-79
2023/06/29 01:43:36;;;;;;;6.30;4.30;;;20.60;99.90;;;;;;5051350;28;20484;-80
2023/06/29 01:46:04;;;;;;;6.77;3.90;;;20.60;99.90;;;;;;5038444;28;20961;-79
2023/06/29 01:48:32;;;;;;;5.00;3.60;;;20.60;99.90;;;;;;5047410;28;20456;-82
2023/06/29 01:51:00;;;;;;;5.93;3.93;;;20.60;99.90;;;;;;5048249;28;20473;-79
2023/06/29 01:53:28;;;;;;;7.03;3.80;;;20.50;1.00;;;;;;5038601;28;20449;-80
2023/06/29 01:55:56;;;;;;;9.20;4.47;;;20.50;1.00;;;;;;5055937;28;20823;-81
2023/06/29 01:58:23;;;;;;;6.73;4.50;;;20.50;99.90;;;;;;5052367;28;20457;-81
2023/06/29 02:00:51;;;;;;;5.50;4.00;;;20.50;99.90;;;;;;5053226;28;20539;-80
2023/06/29 02:03:18;;;;;;;6.23;3.30;;;20.50;1.00;;;;;;5049470;28;20498;-81
2023/06/29 02:05:45;;;;;;;5.23;4.10;;;20.50;1.00;;;;;;5040567;28;20456;-80
2023/06/29 02:08:12;;;;;;;5.00;4.07;;;20.50;1.00;;;;;;5057938;28;20451;-82
2023/06/29 02:10:40;;;;;;;6.53;4.53;;;20.50;1.00;;;;;;5057168;28;20471;-80
2023/06/29 02:13:07;;;;;;;6.13;4.10;;;20.50;99.90;;;;;;5049932;28;20451;-81
2023/06/29 02:15:33;;;;;;;9.20;4.87;;;20.40;99.90;;;;;;5053198;28;20458;-80
2023/06/29 02:18:02;;;;;;;5.80;4.23;;;20.40;99.90;;;;;;5055102;28;20463;-79
2023/06/29 02:20:28;;;;;;;6.60;4.20;;;20.40;99.90;;;;;;5038168;28;20463;-81
2023/06/29 02:22:55;;;;;;;7.20;4.43;;;20.40;99.90;;;;;;5037908;28;20552;-80
2023/06/29 02:25:22;;;;;;;6.10;3.73;;;20.40;80.20;;;;;;5044498;28;20455;-82
2023/06/29 02:27:49;;;;;;;8.57;4.27;;;20.40;1.00;;;;;;5048003;28;20452;-80
2023/06/29 02:30:16;;;;;;;9.87;4.63;;;20.40;1.00;;;;;;5038062;28;20459;-79
2023/06/29 02:32:43;;;;;;;6.47;4.53;;;20.40;99.90;;;;;;5056128;28;20443;-81
2023/06/29 02:35:11;;;;;;;6.37;4.00;;;20.40;99.90;;;;;;5049753;28;20986;-79
2023/06/29 02:37:38;;;;;;;5.73;4.23;;;20.40;1.00;;;;;;5052380;28;20448;-81
2023/06/29 02:40:06;;;;;;;8.23;4.27;;;20.40;1.00;;;;;;5037462;28;20452;-80
2023/06/29 02:42:33;;;;;;;6.50;4.40;;;20.40;1.00;;;;;;5037258;28;20488;-82
2023/06/29 02:44:59;;;;;;;8.27;4.70;;;20.40;1.00;;;;;;5056359;28;20453;-81
2023/06/29 02:47:27;;;;;;;7.33;4.03;;;20.40;99.90;;;;;;5058574;28;20459;-81
2023/06/29 02:49:54;;;;;;;7.40;5.03;;;20.40;99.90;;;;;;5060943;28;20463;-80
2023/06/29 02:52:23;;;;;;;7.37;3.93;;;20.40;99.90;;;;;;5061735;28;20507;-82
2023/06/29 02:54:50;;;;;;;6.47;4.63;;;20.40;11.60;;;;;;5061411;28;20448;-80
2023/06/29 02:57:17;;;;;;;7.47;4.10;;;20.40;99.90;;;;;;5056119;28;20452;-82
2023/06/29 02:59:44;;;;;;;5.27;4.00;;;20.40;99.90;;;;;;5045350;28;20857;-82
2023/06/29 03:02:11;;;;;;;6.43;4.10;;;20.30;99.90;;;;;;5056407;28;20488;-82
2023/06/29 03:04:37;;;;;;;6.90;4.10;;;20.30;99.90;;;;;;5050222;28;20839;-81
2023/06/29 03:07:04;;;;;;;6.30;4.40;;;20.30;99.90;;;;;;5051940;28;20447;-81
2023/06/29 03:09:33;;;;;;;5.77;3.93;;;20.40;99.90;;;;;;5054084;28;20482;-81
2023/06/29 03:11:59;;;;;;;4.90;4.37;;;20.30;1.00;;;;;;5056061;28;20468;-78
2023/06/29 03:14:26;;;;;;;5.87;4.20;;;20.40;1.00;;;;;;5048767;28;20452;-80
2023/06/29 03:16:53;;;;;;;6.40;4.60;;;20.30;99.90;;;;;;5039853;28;20452;-80
2023/06/29 03:19:20;;;;;;;6.90;4.23;;;20.30;99.90;;;;;;5052225;28;20448;-80
2023/06/29 03:21:46;;;;;;;6.73;4.70;;;20.30;1.00;;;;;;5056355;28;20499;-81
2023/06/29 03:24:13;;;;;;;6.50;4.47;;;20.30;99.90;;;;;;5050379;28;20456;-81
2023/06/29 03:26:41;;;;;;;5.87;4.50;;;20.30;99.90;;;;;;5048903;28;20449;-80
2023/06/29 03:29:08;;;;;;;5.37;4.20;;;20.30;65.10;;;;;;5050706;28;20956;-82
2023/06/29 03:31:35;;;;;;;7.30;4.60;;;20.30;99.90;;;;;;5043584;28;20487;-80
2023/06/29 03:34:02;;;;;;;5.30;4.13;;;20.30;99.90;;;;;;5052232;28;20447;-81
2023/06/29 03:36:28;;;;;;;6.83;5.07;;;20.30;99.90;;;;;;5055817;28;20458;-81
2023/06/29 03:38:55;;;;;;;7.60;4.63;;;20.30;99.90;;;;;;5045358;28;20455;-82
2023/06/29 03:41:22;;;;;;;4.60;3.87;;;20.30;1.00;;;;;;5051017;28;20471;-82
2023/06/29 03:43:50;;;;;;;7.93;5.37;;;20.40;99.90;;;;;;5051941;28;20491;-82
2023/06/29 03:46:17;;;;;;;5.80;4.90;;;20.40;99.90;;;;;;5049093;28;20807;-82
2023/06/29 03:48:44;;;;;;;6.30;4.27;;;20.40;1.00;;;;;;5045484;28;20457;-79
2023/06/29 03:51:10;;;;;;;5.80;4.23;;;20.40;99.90;;;;;;5038783;28;20567;-80
2023/06/29 03:53:37;;;;;;;7.87;5.03;;;20.50;1.00;;;;;;5037815;28;20452;-80
2023/06/29 03:56:04;;;;;;;7.47;4.93;;;20.50;1.00;;;;;;5048795;28;20470;-79
2023/06/29 03:58:31;;;;;;;5.43;4.27;;;20.50;1.00;;;;;;5045587;28;20830;-79
2023/06/29 04:00:59;;;;;;;7.30;4.73;;;20.50;1.00;;;;;;5041075;28;20479;-80
2023/06/29 04:03:26;;;;;;;6.73;4.83;;;20.50;1.00;;;;;;5052360;28;20492;-80
2023/06/29 04:05:53;;;;;;;5.00;4.47;;;20.50;1.00;;;;;;5042125;28;20544;-80
2023/06/29 04:08:20;;;;;;;6.23;4.53;;;20.50;99.90;;;;;;5039074;28;20457;-80
2023/06/29 04:10:46;;;;;;;7.80;4.70;;;20.60;1.00;;;;;;5048899;28;20476;-81
2023/06/29 04:13:13;;;;;;;7.07;5.00;;;20.60;1.00;;;;;;5054517;28;20449;-78
2023/06/29 04:15:40;;;;;;;8.33;4.17;;;20.60;1.00;;;;;;5056297;28;20547;-80
2023/06/29 04:18:08;;;;;;;7.07;4.40;;;20.60;1.00;;;;;;5058368;28;20487;-79
2023/06/29 04:20:37;;;;;;;7.60;5.33;;;20.70;1.00;;;;;;5050343;28;20544;-80
2023/06/29 04:23:04;;;;;;;4.73;4.23;;;20.70;20.70;;;;;;5048525;28;20484;-78
2023/06/29 04:25:32;;;;;;;7.00;5.20;;;20.70;99.90;;;;;;5049040;28;20456;-83
2023/06/29 04:28:00;;;;;;;7.00;5.27;;;20.70;99.90;;;;;;5043496;28;20459;-82
2023/06/29 04:30:26;;;;;;;6.50;4.83;;;20.70;1.00;;;;;;5040211;28;20509;-80
2023/06/29 04:32:53;;;;;;;7.60;4.70;;;20.70;1.00;;;;;;5038976;28;20795;-82
2023/06/29 04:35:21;;;;;;;6.93;4.93;;;20.70;1.00;;;;;;5047471;28;20542;-83
2023/06/29 04:37:48;;;;;;;5.30;4.10;;;20.70;92.90;;;;;;5060471;28;20458;-84
2023/06/29 04:40:15;;;;;;;7.10;4.33;;;20.70;1.00;;;;;;5060153;28;20436;-83
2023/06/29 04:42:45;;;;;;;8.90;4.90;;;20.70;1.00;;;;;;5060326;28;20563;-83
2023/06/29 04:45:17;;;;;;;6.17;5.00;;;20.80;1.00;;;;;;5055730;28;20547;-83
2023/06/29 04:47:44;;;;;;;9.00;4.83;;;20.80;1.00;;;;;;5060638;28;20478;-83
2023/06/29 04:50:11;;;;;;;9.20;5.00;;;20.80;1.00;;;;;;5059199;28;20450;-83
2023/06/29 04:52:40;;;;;;;7.13;4.30;;;20.80;1.00;;;;;;5060679;28;20464;-83
2023/06/29 04:55:08;;;;;;;6.67;4.80;;;20.80;1.00;;;;;;5053451;28;20460;-81
2023/06/29 04:57:35;;;;;;;7.17;4.97;;;20.90;1.00;;;;;;5040590;28;20459;-83
2023/06/29 05:00:06;;;;;;;6.00;4.70;;;20.90;1.00;;;;;;5052173;28;20555;-84
2023/06/29 05:02:33;;;;;;;5.73;4.60;;;20.90;99.90;;;;;;5059726;28;20980;-83
2023/06/29 05:05:00;;;;;;;5.80;4.50;;;21.00;1.00;;;;;;5054351;28;20455;-82
2023/06/29 05:07:27;;;;;;;7.63;4.30;;;21.00;99.90;;;;;;5039349;28;20492;-83
2023/06/29 05:09:55;;;;;;;6.83;4.53;;;21.00;1.00;;;;;;5039662;28;20457;-83
2023/06/29 05:12:22;;;;;;;6.30;4.23;;;21.00;1.00;;;;;;5039437;28;20473;-82
2023/06/29 05:14:49;;;;;;;7.40;4.67;;;21.00;99.90;;;;;;5054782;28;20452;-82
2023/06/29 05:17:17;;;;;;;5.60;4.63;;;21.00;99.90;;;;;;5039261;28;20520;-80
2023/06/29 05:19:44;;;;;;;5.00;4.47;;;21.00;99.90;;;;;;5038224;28;20456;-81
2023/06/29 05:22:11;;;;;;;6.50;4.63;;;21.00;1.00;;;;;;5039033;28;20469;-83
2023/06/29 05:24:38;;;;;;;7.33;4.57;;;21.00;1.00;;;;;;5038370;28;20862;-82
2023/06/29 05:27:07;;;;;;;6.73;4.70;;;21.00;1.00;;;;;;5038767;28;20463;-82
2023/06/29 05:29:34;;;;;;;5.90;4.80;;;21.00;1.00;;;;;;5057405;28;21011;-82
2023/06/29 05:32:00;;;;;;;6.00;4.90;;;21.10;1.00;;;;;;5058098;28;20494;-83
2023/06/29 05:34:27;;;;;;;9.00;4.77;;;21.10;1.00;;;;;;5058330;28;20440;-83
2023/06/29 05:36:54;;;;;;;9.33;4.97;;;21.10;1.00;;;;;;5057696;28;20455;-83
2023/06/29 05:39:21;;;;;;;6.40;4.50;;;21.10;1.00;;;;;;5058365;28;20447;-81
2023/06/29 05:41:48;;;;;;;6.63;4.23;;;21.10;1.00;;;;;;5058653;28;20973;-81
2023/06/29 05:44:16;;;;;;;12.63;4.80;;;21.20;99.90;;;;;;5058755;28;20490;-83
2023/06/29 05:46:43;;;;;;;9.70;4.80;;;21.20;99.90;;;;;;5058302;28;20459;-81
2023/06/29 05:49:10;;;;;;;6.43;5.10;;;21.30;1.00;;;;;;5058476;28;20466;-83
2023/06/29 05:51:37;;;;;;;6.77;4.90;;;21.30;1.00;;;;;;5058659;28;20902;-83
2023/06/29 05:54:04;;;;;;;7.80;5.60;;;21.30;99.90;;;;;;5059172;28;20853;-79
2023/06/29 05:56:31;;;;;;;7.50;3.90;;;21.30;99.90;;;;;;5058945;28;20543;-82
2023/06/29 05:58:58;;;;;;;6.33;5.00;;;21.40;99.90;;;;;;5013981;28;20463;-79
2023/06/29 06:01:26;;;;;;;6.53;5.47;;;21.40;1.00;;;;;;5040753;28;20575;-81
2023/06/29 06:03:54;;;;;;;7.30;5.37;;;21.50;99.90;;;;;;5051187;28;20567;-82
2023/06/29 06:06:21;;;;;;;9.17;5.23;;;21.60;1.00;;;;;;5051997;28;20486;-81
2023/06/29 06:08:48;;;;;;;8.83;5.50;;;21.60;99.90;;;;;;5009263;28;20452;-81
2023/06/29 06:11:15;;;;;;;5.87;5.10;;;21.70;99.90;;;;;;5037124;28;20560;-79
2023/06/29 06:13:42;;;;;;;7.97;5.20;;;21.70;24.70;;;;;;5036403;28;20835;-82
2023/06/29 06:16:09;;;;;;;8.83;5.30;;;21.80;1.00;;;;;;5042970;28;21271;-80
2023/06/29 06:18:37;;;;;;;6.17;4.83;;;21.90;1.00;;;;;;5048658;28;20488;-82
2023/06/29 06:21:04;;;;;;;8.43;5.70;;;21.90;1.00;;;;;;5050501;28;20490;-81
2023/06/29 06:23:31;;;;;;;10.00;5.47;;;21.80;1.00;;;;;;5048437;28;20493;-80
2023/06/29 06:25:58;;;;;;;9.33;4.80;;;21.90;1.00;;;;;;5049931;28;20452;-81
2023/06/29 06:28:25;;;;;;;7.10;5.30;;;21.80;1.00;;;;;;5050092;28;20475;-79
2023/06/29 06:30:54;;;;;;;10.53;5.23;;;21.90;77.00;;;;;;5052861;28;20539;-80
2023/06/29 06:33:21;;;;;;;8.30;5.57;;;22.00;80.50;;;;;;5041445;28;20463;-82
2023/06/29 06:35:49;;;;;;;7.50;4.90;;;22.00;99.90;;;;;;5056073;28;20458;-81
2023/06/29 06:38:16;;;;;;;7.30;4.97;;;22.10;99.90;;;;;;5049034;28;20539;-82
2023/06/29 06:40:43;;;;;;;9.80;5.20;;;22.20;1.00;;;;;;5042695;28;20469;-81
2023/06/29 06:43:10;;;;;;;7.40;4.90;;;22.30;1.00;;;;;;5044433;28;20555;-81
2023/06/29 06:45:36;;;;;;;7.03;4.67;;;22.30;99.90;;;;;;5049930;28;20535;-82
2023/06/29 06:48:04;;;;;;;7.17;5.00;;;22.40;1.00;;;;;;5047608;28;20455;-80
2023/06/29 06:50:30;;;;;;;5.80;4.90;;;22.40;1.00;;;;;;5051857;28;20462;-80
2023/06/29 06:52:59;;;;;;;7.40;4.53;;;22.30;99.90;;;;;;5054929;28;21166;-80
2023/06/29 06:55:25;;;;;;;8.03;5.53;;;22.40;1.00;;;;;;5053151;28;20482;-81
2023/06/29 06:57:52;;;;;;;7.10;5.17;;;22.50;99.90;;;;;;5058719;28;20539;-81
2023/06/29 07:00:20;;;;;;;6.50;5.10;;;22.60;99.90;;;;;;5050561;28;20456;-81
2023/06/29 07:02:46;;;;;;;6.13;4.67;;;22.60;99.90;;;;;;5052585;28;20451;-81
2023/06/29 07:05:14;;;;;;;8.10;5.00;;;22.70;99.90;;;;;;5052554;28;20480;-82
2023/06/29 07:07:41;;;;;;;6.90;4.67;;;22.80;99.90;;;;;;5047320;28;20463;-81
2023/06/29 07:10:10;;;;;;;7.83;5.53;;;22.80;99.90;;;;;;5050242;28;20983;-81
2023/06/29 07:12:37;;;;;;;7.73;5.50;;;22.90;99.90;;;;;;5050303;28;21011;-81
2023/06/29 07:15:08;;;;;;;7.40;4.83;;;22.90;99.90;;;;;;5045545;28;20457;-81
2023/06/29 07:17:34;;;;;;;6.10;4.73;;;22.90;99.90;;;;;;5045106;28;20448;-80
2023/06/29 07:20:01;;;;;;;7.17;4.50;;;22.90;99.90;;;;;;5053928;28;20453;-80
2023/06/29 07:22:28;;;;;;;9.90;4.70;;;23.00;99.90;;;;;;5045554;28;20476;-82
2023/06/29 07:24:57;;;;;;;7.67;5.00;;;23.10;99.90;;;;;;5045157;28;20510;-80
2023/06/29 07:27:25;;;;;;;9.47;4.60;;;23.10;99.90;;;;;;5048537;28;20467;-80
2023/06/29 07:29:52;;;;;;;4.90;3.97;;;23.10;99.90;;;;;;5049869;28;20518;-81
2023/06/29 07:32:19;;;;;;;5.73;3.87;;;23.20;99.90;;;;;;5051903;28;20558;-82
2023/06/29 07:34:45;;;;;;;6.80;3.80;;;23.20;98.10;;;;;;5053186;28;20458;-81
2023/06/29 07:37:12;;;;;;;7.00;4.40;;;23.20;99.90;;;;;;5042618;28;20453;-80
2023/06/29 07:39:39;;;;;;;6.00;3.70;;;23.30;99.90;;;;;;5059642;28;20478;-81
2023/06/29 07:42:06;;;;;;;7.67;4.10;;;23.30;99.90;;;;;;5044905;28;20540;-81
2023/06/29 07:44:34;;;;;;;13.60;4.20;;;23.20;95.70;;;;;;5039083;28;20477;-82
2023/06/29 07:47:01;;;;;;;7.07;3.43;;;23.20;61.80;;;;;;5042668;28;20995;-81
2023/06/29 07:49:28;;;;;;;5.77;3.90;;;23.20;93.00;;;;;;5050989;28;20519;-79
2023/06/29 07:51:55;;;;;;;4.00;3.20;;;23.20;99.90;;;;;;5050770;28;20857;-82
2023/06/29 07:54:21;;;;;;;5.13;3.37;;;23.10;99.90;;;;;;5052738;28;20458;-82
2023/06/29 07:56:48;;;;;;;7.63;4.07;;;23.10;99.90;;;;;;5056891;28;20539;-82
2023/06/29 07:59:15;;;;;;;7.33;3.60;;;23.00;99.90;;;;;;5055052;28;20524;-81
2023/06/29 08:01:43;;;;;;;6.93;3.80;;;23.10;99.90;;;;;;5048736;28;21114;-84
2023/06/29 08:04:10;;;;;;;8.13;3.60;;;23.10;99.90;;;;;;5053326;28;20578;-84
2023/06/29 08:06:41;;;;;;;7.20;3.13;;;23.00;99.90;;;;;;5053889;28;20538;-84
2023/06/29 08:09:08;;;;;;;5.50;3.80;;;23.00;99.90;;;;;;5053291;28;20449;-84
2023/06/29 08:11:35;;;;;;;5.00;3.03;;;22.90;99.90;;;;;;5046829;28;20480;-84
2023/06/29 08:14:02;;;;;;;4.20;2.83;;;22.90;99.90;;;;;;5050265;28;20462;-84
2023/06/29 08:16:29;;;;;;;7.13;3.53;;;22.90;99.90;;;;;;5050956;28;20454;-83
2023/06/29 08:18:57;;;;;;;6.30;3.53;;;22.80;99.90;;;;;;5048397;28;20453;-86
2023/06/29 08:21:24;;;;;;;7.90;4.30;;;22.80;99.90;;;;;;5049344;28;20500;-84
2023/06/29 08:23:51;;;;;;;6.77;3.23;;;22.80;99.90;;;;;;5049283;28;20535;-84
2023/06/29 08:26:18;;;;;;;6.77;3.40;;;22.80;99.90;;;;;;5060701;28;21019;-85
2023/06/29 08:28:45;;;;;;;4.07;3.07;;;22.90;99.90;;;;;;5055973;28;20457;-84
2023/06/29 08:31:12;;;;;;;7.50;3.37;;;23.00;99.90;;;;;;5059288;28;20548;-85
2023/06/29 08:33:39;;;;;;;8.07;4.07;;;23.00;1.00;;;;;;5059050;28;20456;-85
2023/06/29 08:36:07;;;;;;;4.50;3.10;;;22.90;99.90;;;;;;5053283;28;21027;-84
2023/06/29 08:38:34;;;;;;;4.80;3.53;;;23.00;99.90;;;;;;5043667;28;20452;-84
2023/06/29 08:41:04;;;;;;;7.33;3.63;;;23.10;99.90;;;;;;5037810;28;20512;-85
2023/06/29 08:43:31;;;;;;;5.80;3.60;;;23.10;99.90;;;;;;5055962;28;20456;-85
2023/06/29 08:45:58;;;;;;;5.80;3.33;;;23.20;99.90;;;;;;5063690;28;20974;-85
2023/06/29 08:48:26;;;;;;;7.77;3.43;;;23.20;99.90;;;;;;5063764;28;20554;-84
2023/06/29 08:50:56;;;;;;;5.80;3.00;;;23.10;93.80;;;;;;5067591;28;20480;-84
2023/06/29 08:53:27;;;;;;;5.70;2.90;;;23.20;76.00;;;;;;5059864;28;20458;-84
2023/06/29 08:55:54;;;;;;;5.73;3.53;;;23.20;83.10;;;;;;5049478;28;20451;-85
2023/06/29 08:58:22;;;;;;;7.80;3.90;;;23.20;99.90;;;;;;5051536;28;20460;-86
2023/06/29 09:00:49;;;;;;;11.70;4.23;;;23.30;99.90;;;;;;5054661;28;20504;-85
2023/06/29 09:03:17;;;;;;;6.23;3.80;;;23.30;99.90;;;;;;5053308;28;20452;-85
2023/06/29 09:05:46;;;;;;;7.47;4.63;;;23.30;99.90;;;;;;5051920;28;21025;-85
2023/06/29 09:08:12;;;;;;;8.00;5.17;;;23.30;84.90;;;;;;5052446;28;20483;-84
2023/06/29 09:10:42;;;;;;;8.83;5.10;;;23.40;56.00;;;;;;5050508;28;20464;-83
2023/06/29 09:13:09;;;;;;;6.93;4.40;;;23.50;94.60;;;;;;5047736;28;20449;-85
2023/06/29 09:15:38;;;;;;;6.30;4.17;;;23.50;99.90;;;;;;5055953;28;20515;-85
2023/06/29 09:18:05;;;;;;;5.93;3.83;;;23.50;99.90;;;;;;5050680;28;20575;-85
2023/06/29 09:20:35;;;;;;;10.33;4.03;;;23.60;99.90;;;;;;5050417;28;20453;-85
2023/06/29 09:23:02;;;;;;;6.20;4.13;;;23.60;99.90;;;;;;5048601;28;20510;-87
2023/06/29 09:25:31;;;;;;;6.20;3.53;;;23.60;99.90;;;;;;5050634;28;20574;-83
2023/06/29 09:28:07;;;;;;;5.63;3.40;;;23.70;99.90;;;;;;5049327;28;20463;-86
2023/06/29 09:30:38;;;;;;;5.30;3.27;;;23.70;99.90;;;;;;5046250;28;20582;-83
2023/06/29 09:33:09;;;;;;;9.67;3.80;;;23.80;99.90;;;;;;5048520;28;20441;-84
2023/06/29 09:35:39;;;;;;;5.67;3.70;;;23.70;99.90;;;;;;5048162;28;20476;-86
2023/06/29 09:38:06;;;;;;;5.43;3.97;;;23.80;99.90;;;;;;5048891;28;20448;-86
2023/06/29 09:40:45;;;;;;;8.30;4.77;;;23.80;99.90;;;;;;5059279;28;20440;-84
2023/06/29 09:43:17;;;;;;;10.60;5.10;;;23.80;43.10;;;;;;5059996;28;20891;-85
2023/06/29 09:45:44;;;;;;;6.20;4.30;;;23.60;25.30;;;;;;5058885;28;20471;-85
2023/06/29 09:48:12;;;;;;;6.13;4.50;;;23.60;14.00;;;;;;5059016;28;20447;-85
2023/06/29 09:50:40;;;;;;;8.20;4.60;;;23.60;42.90;;;;;;5047481;28;20519;-84
2023/06/29 09:53:09;;;;;;;7.83;4.27;;;23.60;84.80;;;;;;5047418;28;20856;-86
2023/06/29 09:55:37;;;;;;;7.50;5.03;;;23.70;99.90;;;;;;5056893;28;20448;-85
2023/06/29 09:58:04;;;;;;;8.90;6.00;;;23.60;99.90;;;;;;5048872;28;20460;-83
2023/06/29 10:00:33;;;;;;;6.50;4.43;;;23.60;99.90;;;;;;5051451;28;20455;-85
2023/06/29 10:03:00;;;;;;;6.80;4.87;;;23.60;99.90;;;;;;5046756;28;20468;-86
2023/06/29 10:05:30;;;;;;;6.80;5.00;;;23.50;99.90;;;;;;5049983;28;20528;-85
2023/06/29 10:07:57;;;;;;;6.90;4.43;;;23.50;99.90;;;;;;5053913;28;20456;-84
2023/06/29 10:10:27;;;;;;;8.10;5.50;;;23.40;99.90;;;;;;5045442;28;20496;-85
2023/06/29 10:12:56;;;;;;;9.13;5.30;;;23.40;99.90;;;;;;5039043;28;20550;-86
2023/06/29 10:15:26;;;;;;;7.70;5.20;;;23.40;99.90;;;;;;5058751;28;20451;-86
2023/06/29 10:18:02;;;;;;;10.30;5.40;;;23.40;99.90;;;;;;5058829;28;20454;-83
2023/06/29 10:20:32;;;;;;;8.37;6.40;;;23.40;99.90;;;;;;5058223;28;20440;-83
2023/06/29 10:23:03;;;;;;;6.80;5.30;;;23.40;99.90;;;;;;5057882;28;20452;-84
2023/06/29 10:25:34;;;;;;;14.10;6.57;;;23.40;99.90;;;;;;5056579;28;20482;-84
2023/06/29 10:28:02;;;;;;;10.50;5.90;;;23.50;99.90;;;;;;5051909;28;20459;-82
2023/06/29 10:30:29;;;;;;;9.30;6.83;;;23.50;99.90;;;;;;5040433;28;20532;-84
2023/06/29 10:32:58;;;;;;;13.00;7.60;;;23.50;99.90;;;;;;5056996;28;20511;-84
2023/06/29 10:35:25;;;;;;;9.23;6.30;;;23.50;99.90;;;;;;5058870;28;20440;-85
2023/06/29 10:37:57;;;;;;;11.93;7.30;;;23.60;99.90;;;;;;5047042;28;21146;-85
2023/06/29 10:40:25;;;;;;;11.30;6.90;;;23.70;99.90;;;;;;5048447;28;20455;-85
2023/06/29 10:42:54;;;;;;;9.97;7.20;;;23.80;99.90;;;;;;5043565;28;20475;-85
2023/06/29 10:45:32;;;;;;;8.70;7.30;;;24.00;99.90;;;;;;5040508;28;20523;-84
2023/06/29 10:48:06;;;;;;;12.20;8.10;;;24.00;99.90;;;;;;5049791;28;20550;-85
2023/06/29 10:50:37;;;;;;;11.50;8.57;;;24.10;99.90;;;;;;5039119;28;20436;-83
2023/06/29 10:53:06;;;;;;;13.50;10.30;;;24.20;99.90;;;;;;5047184;28;20436;-82
2023/06/29 10:55:42;;;;;;;14.20;8.77;;;24.30;99.90;;;;;;5058438;28;20444;-84
2023/06/29 10:58:19;;;;;;;12.20;8.80;;;24.50;99.90;;;;;;5039739;28;20881;-84
2023/06/29 11:00:48;;;;;;;10.10;8.70;;;24.60;73.90;;;;;;5055710;28;20542;-84
2023/06/29 11:03:17;;;;;;;12.83;8.37;;;24.80;50.60;;;;;;5052063;28;20972;-82
2023/06/29 11:05:47;;;;;;;10.70;8.33;;;25.20;99.90;;;;;;5050942;28;21006;-84
2023/06/29 11:08:15;;;;;;;13.80;9.20;;;25.50;99.90;;;;;;5051566;28;20516;-84
2023/06/29 11:10:44;;;;;;;13.23;9.80;;;25.60;1.00;;;;;;5060674;28;20471;-84
2023/06/29 11:13:12;;;;;;;13.87;8.47;;;25.60;1.00;;;;;;5055847;28;21037;-84
2023/06/29 11:15:39;;;;;;;10.37;7.83;;;25.70;1.00;;;;;;5061648;28;20817;-84
2023/06/29 11:18:08;;;;;;;14.53;10.40;;;26.00;1.00;;;;;;5058062;28;20554;-83
2023/06/29 11:20:38;;;;;;;12.23;9.10;;;26.40;1.00;;;;;;5052373;28;20880;-85
2023/06/29 11:23:07;;;;;;;17.07;10.07;;;26.70;1.00;;;;;;5053780;28;20536;-84
2023/06/29 11:25:34;;;;;;;12.03;10.30;;;27.30;1.00;;;;;;5058162;28;21037;-84
2023/06/29 11:28:05;;;;;;;13.90;10.53;;;27.70;1.00;;;;;;5051959;28;20544;-85
2023/06/29 11:30:32;;;;;;;14.40;10.33;;;28.10;1.00;;;;;;5056701;28;20524;-83
2023/06/29 11:33:01;;;;;;;12.10;9.20;;;28.40;1.00;;;;;;5055048;28;20491;-84
2023/06/29 11:35:33;;;;;;;12.37;9.07;;;28.70;1.00;;;;;;5062945;28;20940;-82
2023/06/29 11:38:01;;;;;;;13.57;9.20;;;28.70;1.00;;;;;;5062681;28;20436;-84
2023/06/29 11:40:32;;;;;;;13.37;9.10;;;29.30;1.00;;;;;;5062898;28;20451;-83
2023/06/29 11:43:00;;;;;;;11.83;8.47;;;29.50;1.00;;;;;;5062399;28;20452;-84
2023/06/29 11:45:40;;;;;;;12.20;9.57;;;29.70;1.00;;;;;;5061625;28;20491;-85
2023/06/29 11:48:07;;;;;;;11.23;9.20;;;29.20;1.00;;;;;;5061744;28;20531;-85
2023/06/29 11:50:36;;;;;;;12.47;9.57;;;29.10;99.90;;;;;;5049214;28;20448;-85
2023/06/29 11:53:06;;;;;;;14.03;9.13;;;28.70;99.90;;;;;;5054966;28;20459;-84
2023/06/29 11:55:33;;;;;;;11.67;9.80;;;28.20;1.00;;;;;;5054947;28;20466;-84
2023/06/29 11:58:02;;;;;;;10.73;8.73;;;27.80;99.90;;;;;;5050186;28;20849;-86
2023/06/29 12:00:31;;;;;;;11.50;8.40;;;27.30;99.90;;;;;;5050841;28;20475;-83
2023/06/29 12:03:07;;;;;;;11.30;9.43;;;26.90;99.90;;;;;;5055187;28;20948;-85
2023/06/29 12:05:35;;;;;;;11.93;8.60;;;26.50;99.90;;;;;;5059623;28;20570;-84
2023/06/29 12:08:10;;;;;;;10.43;8.73;;;26.10;99.90;;;;;;5051347;28;20490;-84
2023/06/29 12:10:40;;;;;;;12.23;9.27;;;25.80;1.00;;;;;;5052681;28;20448;-84
2023/06/29 12:13:11;;;;;;;13.93;9.20;;;25.50;1.00;;;;;;5055468;28;20452;-84
2023/06/29 12:15:37;;;;;;;15.87;10.93;;;25.30;1.00;;;;;;5044659;28;20460;-84
2023/06/29 12:18:11;;;;;;;10.43;8.27;;;25.00;1.00;;;;;;5053518;28;21023;-83
2023/06/29 12:20:39;;;;;;;16.83;10.30;;;24.80;1.00;;;;;;5059485;28;20917;-84
2023/06/29 12:23:08;;;;;;;15.70;9.20;;;24.60;1.00;;;;;;5061316;28;20455;-85
2023/06/29 12:25:43;;;;;;;15.50;10.53;;;24.40;99.90;;;;;;5042742;28;20485;-83
2023/06/29 12:28:10;;;;;;;12.70;9.33;;;24.20;99.90;;;;;;5039444;28;20921;-80
2023/06/29 12:30:37;;;;;;;15.00;10.90;;;24.10;99.90;;;;;;5042810;28;20524;-84
2023/06/29 12:33:04;;;;;;;14.30;10.40;;;24.00;99.90;;;;;;5041415;28;20445;-81
2023/06/29 12:35:31;;;;;;;15.17;10.60;;;23.90;99.90;;;;;;5047191;28;20451;-81
2023/06/29 12:37:59;;;;;;;12.77;10.10;;;23.80;95.00;;;;;;5059488;28;20451;-82
2023/06/29 12:40:27;;;;;;;14.40;10.57;;;23.70;1.00;;;;;;5049490;28;20513;-82
2023/06/29 12:42:55;;;;;;;13.10;11.40;;;23.70;99.90;;;;;;5040875;28;21019;-82
2023/06/29 12:45:21;;;;;;;15.93;10.00;;;23.70;1.00;;;;;;5041200;28;20485;-81
2023/06/29 12:47:48;;;;;;;14.00;10.63;;;23.60;99.90;;;;;;5048753;28;20547;-85
2023/06/29 12:50:16;;;;;;;15.70;10.17;;;23.70;99.90;;;;;;5055436;28;20481;-83
2023/06/29 12:52:43;;;;;;;15.60;9.07;;;23.80;99.90;;;;;;5045759;28;20566;-83